<?xml version='1.0' encoding='UTF-8'?><gpx version="1.1" creator="JPX - https://github.com/jenetics/jpx" xmlns="http://www.topografix.com/GPX/1/1"><trk><trkseg><trkpt lat="45.72700306783708" lon="9.720990370017578"><ele>283.0</ele><time>2026-05-03T15:17:51Z</time></trkpt><trkpt lat="45.727063221127025" lon="9.72095912518503"><ele>283.0</ele><time>2026-05-03T15:17:57.001Z</time></trkpt><trkpt lat="45.727100249504296" lon="9.72088578965707"><ele>283.0</ele><time>2026-05-03T15:18:00.001Z</time></trkpt><trkpt lat="45.72705982785608" lon="9.720792684021346"><ele>283.0</ele><time>2026-05-03T15:18:05Z</time></trkpt><trkpt lat="45.72701124997177" lon="9.720732776468163"><ele>283.0</ele><time>2026-05-03T15:18:09Z</time></trkpt><trkpt lat="45.726948051666405" lon="9.7206736219999"><ele>283.0</ele><time>2026-05-03T15:18:13Z</time></trkpt><trkpt lat="45.726907458196" lon="9.720598575636147"><ele>283.0</ele><time>2026-05-03T15:18:17Z</time></trkpt><trkpt lat="45.72684892276974" lon="9.720560731168113"><ele>283.0</ele><time>2026-05-03T15:18:20Z</time></trkpt><trkpt lat="45.72679226931977" lon="9.720515870395502"><ele>283.0</ele><time>2026-05-03T15:18:23Z</time></trkpt><trkpt lat="45.72674071519999" lon="9.720461041755676"><ele>283.0</ele><time>2026-05-03T15:18:27Z</time></trkpt><trkpt lat="45.72667816330755" lon="9.720390186220351"><ele>283.0</ele><time>2026-05-03T15:18:31Z</time></trkpt><trkpt lat="45.72663772833967" lon="9.720302843378954"><ele>283.0</ele><time>2026-05-03T15:18:35Z</time></trkpt><trkpt lat="45.72663068833504" lon="9.720178507852337"><ele>283.0</ele><time>2026-05-03T15:18:43Z</time></trkpt><trkpt lat="45.72657127414049" lon="9.72013615655871"><ele>283.0</ele><time>2026-05-03T15:18:47Z</time></trkpt><trkpt lat="45.72650634305115" lon="9.720093548637474"><ele>283.42857142857144</ele><time>2026-05-03T15:18:51Z</time></trkpt><trkpt lat="45.72644125531028" lon="9.72004975329266"><ele>283.8571428571429</ele><time>2026-05-03T15:18:56Z</time></trkpt><trkpt lat="45.72638475730967" lon="9.719965743556225"><ele>284.2857142857143</ele><time>2026-05-03T15:19:01Z</time></trkpt><trkpt lat="45.72631346004885" lon="9.719945782081917"><ele>284.7142857142857</ele><time>2026-05-03T15:19:05Z</time></trkpt><trkpt lat="45.726265109185995" lon="9.719861983281637"><ele>285.1428571428571</ele><time>2026-05-03T15:19:09Z</time></trkpt><trkpt lat="45.726244546272326" lon="9.719776569170996"><ele>285.57142857142856</ele><time>2026-05-03T15:19:11Z</time></trkpt><trkpt lat="45.726188712082994" lon="9.719722933009185"><ele>286.0</ele><time>2026-05-03T15:19:15Z</time></trkpt><trkpt lat="45.726124836952565" lon="9.719673461879117"><ele>285.99999999999994</ele><time>2026-05-03T15:19:21Z</time></trkpt><trkpt lat="45.72606936536569" lon="9.71962677812307"><ele>286.0</ele><time>2026-05-03T15:19:24Z</time></trkpt><trkpt lat="45.72600075181808" lon="9.719633697400194"><ele>286.0</ele><time>2026-05-03T15:19:28Z</time></trkpt><trkpt lat="45.7259394791079" lon="9.719567815809004"><ele>286.0</ele><time>2026-05-03T15:19:32Z</time></trkpt><trkpt lat="45.72591382271941" lon="9.719481865933096"><ele>286.0</ele><time>2026-05-03T15:19:35Z</time></trkpt><trkpt lat="45.725886609813784" lon="9.719391809176349"><ele>285.99999999999994</ele><time>2026-05-03T15:19:39Z</time></trkpt><trkpt lat="45.72589543812853" lon="9.71927761824517"><ele>286.0</ele><time>2026-05-03T15:19:43Z</time></trkpt><trkpt lat="45.72592182821431" lon="9.719193778948872"><ele>286.2857142857143</ele><time>2026-05-03T15:19:46Z</time></trkpt><trkpt lat="45.725900106026906" lon="9.719092211623414"><ele>286.57142857142856</ele><time>2026-05-03T15:19:50Z</time></trkpt><trkpt lat="45.72590626816136" lon="9.718992063856419"><ele>286.8571428571429</ele><time>2026-05-03T15:19:55Z</time></trkpt><trkpt lat="45.72595499212291" lon="9.718924571372652"><ele>287.1428571428571</ele><time>2026-05-03T15:19:59Z</time></trkpt><trkpt lat="45.7259868635391" lon="9.718836685370123"><ele>287.42857142857144</ele><time>2026-05-03T15:20:03Z</time></trkpt><trkpt lat="45.726029922051964" lon="9.718743833116381"><ele>287.7142857142857</ele><time>2026-05-03T15:20:08Z</time></trkpt><trkpt lat="45.726045595767324" lon="9.718651737072184"><ele>288.0</ele><time>2026-05-03T15:20:12Z</time></trkpt><trkpt lat="45.72608022229493" lon="9.718549117584255"><ele>288.7142857142857</ele><time>2026-05-03T15:20:17Z</time></trkpt><trkpt lat="45.72610890268984" lon="9.718457549738336"><ele>289.42857142857144</ele><time>2026-05-03T15:20:21Z</time></trkpt><trkpt lat="45.726144512372656" lon="9.71836680860672"><ele>290.1428571428571</ele><time>2026-05-03T15:20:25Z</time></trkpt><trkpt lat="45.72618993266451" lon="9.718287247994962"><ele>290.8571428571429</ele><time>2026-05-03T15:20:29Z</time></trkpt><trkpt lat="45.72623016973003" lon="9.718205218786473"><ele>291.57142857142856</ele><time>2026-05-03T15:20:34Z</time></trkpt><trkpt lat="45.72626108579252" lon="9.71811476372447"><ele>292.2857142857143</ele><time>2026-05-03T15:20:38Z</time></trkpt><trkpt lat="45.726298289617965" lon="9.718021105275287"><ele>293.0</ele><time>2026-05-03T15:20:43Z</time></trkpt><trkpt lat="45.726345158494816" lon="9.717960817117884"><ele>292.99999999999994</ele><time>2026-05-03T15:20:47Z</time></trkpt><trkpt lat="45.72638836056034" lon="9.717890572809518"><ele>293.0</ele><time>2026-05-03T15:20:51Z</time></trkpt><trkpt lat="45.72639757587762" lon="9.717793479978248"><ele>293.0</ele><time>2026-05-03T15:20:55Z</time></trkpt><trkpt lat="45.72642317694892" lon="9.717707707405214"><ele>293.0</ele><time>2026-05-03T15:20:59Z</time></trkpt><trkpt lat="45.726468010691" lon="9.717622103579348"><ele>293.0</ele><time>2026-05-03T15:21:04Z</time></trkpt><trkpt lat="45.72646609702152" lon="9.717526980442608"><ele>292.99999999999994</ele><time>2026-05-03T15:21:08Z</time></trkpt><trkpt lat="45.72649854141544" lon="9.717444136247066"><ele>293.0</ele><time>2026-05-03T15:21:12Z</time></trkpt><trkpt lat="45.726521722915074" lon="9.717354455076615"><ele>292.85714285714283</ele><time>2026-05-03T15:21:16Z</time></trkpt><trkpt lat="45.72654090411014" lon="9.717268040584184"><ele>292.7142857142857</ele><time>2026-05-03T15:21:20Z</time></trkpt><trkpt lat="45.72658366696192" lon="9.717180436751475"><ele>292.57142857142856</ele><time>2026-05-03T15:21:25Z</time></trkpt><trkpt lat="45.72663598605089" lon="9.717102749742503"><ele>292.42857142857144</ele><time>2026-05-03T15:21:30Z</time></trkpt><trkpt lat="45.726627250664485" lon="9.716999492977038"><ele>292.2857142857143</ele><time>2026-05-03T15:21:34Z</time></trkpt><trkpt lat="45.72663973127315" lon="9.71689818833701"><ele>292.1428571428571</ele><time>2026-05-03T15:21:38Z</time></trkpt><trkpt lat="45.72669113741926" lon="9.716834953310542"><ele>292.0</ele><time>2026-05-03T15:21:42Z</time></trkpt><trkpt lat="45.726731130562435" lon="9.716743942058441"><ele>292.2857142857143</ele><time>2026-05-03T15:21:47Z</time></trkpt><trkpt lat="45.72675938376819" lon="9.716627367058283"><ele>292.57142857142856</ele><time>2026-05-03T15:21:52Z</time></trkpt><trkpt lat="45.72679133703724" lon="9.71654559460309"><ele>292.8571428571429</ele><time>2026-05-03T15:21:56Z</time></trkpt><trkpt lat="45.72679686666358" lon="9.716439450490109"><ele>293.1428571428571</ele><time>2026-05-03T15:22:00Z</time></trkpt><trkpt lat="45.72678036892042" lon="9.716350628122509"><ele>293.42857142857144</ele><time>2026-05-03T15:22:04Z</time></trkpt><trkpt lat="45.726780786285985" lon="9.71625266316171"><ele>293.7142857142857</ele><time>2026-05-03T15:22:08Z</time></trkpt><trkpt lat="45.726779740698866" lon="9.716156120418027"><ele>294.0</ele><time>2026-05-03T15:22:12Z</time></trkpt><trkpt lat="45.726775125642725" lon="9.716057638993366"><ele>294.14285714285717</ele><time>2026-05-03T15:22:17Z</time></trkpt><trkpt lat="45.72673661628628" lon="9.715967616546743"><ele>294.2857142857143</ele><time>2026-05-03T15:22:20Z</time></trkpt><trkpt lat="45.72671789436058" lon="9.71587615263844"><ele>294.42857142857144</ele><time>2026-05-03T15:22:24Z</time></trkpt><trkpt lat="45.72677392596423" lon="9.715791146185916"><ele>294.57142857142856</ele><time>2026-05-03T15:22:29Z</time></trkpt><trkpt lat="45.72683151871207" lon="9.715742039657398"><ele>294.7142857142857</ele><time>2026-05-03T15:22:33Z</time></trkpt><trkpt lat="45.72685216311581" lon="9.71564575643069"><ele>294.8571428571429</ele><time>2026-05-03T15:22:37Z</time></trkpt><trkpt lat="45.72688266956946" lon="9.715550715019965"><ele>295.0</ele><time>2026-05-03T15:22:42Z</time></trkpt><trkpt lat="45.72689800316865" lon="9.715457882984262"><ele>295.16666666666663</ele><time>2026-05-03T15:22:48Z</time></trkpt><trkpt lat="45.72692253754996" lon="9.715355970768055"><ele>295.3333333333333</ele><time>2026-05-03T15:22:52Z</time></trkpt><trkpt lat="45.72697877099235" lon="9.715275245095293"><ele>295.5</ele><time>2026-05-03T15:22:56Z</time></trkpt><trkpt lat="45.72703187350411" lon="9.715203909072091"><ele>295.6666666666667</ele><time>2026-05-03T15:23:01Z</time></trkpt><trkpt lat="45.72710378386339" lon="9.715161492348088"><ele>295.83333333333337</ele><time>2026-05-03T15:23:05Z</time></trkpt><trkpt lat="45.727165049529354" lon="9.715124190231926"><ele>296.0</ele><time>2026-05-03T15:23:10Z</time></trkpt><trkpt lat="45.727221417174206" lon="9.715045313303776"><ele>296.0</ele><time>2026-05-03T15:23:14Z</time></trkpt><trkpt lat="45.7272700697928" lon="9.714986272362822"><ele>296.0</ele><time>2026-05-03T15:23:18Z</time></trkpt><trkpt lat="45.72728999251175" lon="9.714876037950589"><ele>296.0</ele><time>2026-05-03T15:23:22Z</time></trkpt><trkpt lat="45.72730571329958" lon="9.714781835826713"><ele>296.0</ele><time>2026-05-03T15:23:26Z</time></trkpt><trkpt lat="45.72730758991116" lon="9.71469104329566"><ele>296.0</ele><time>2026-05-03T15:23:30Z</time></trkpt><trkpt lat="45.72728335815876" lon="9.714594286917581"><ele>296.0</ele><time>2026-05-03T15:23:33Z</time></trkpt><trkpt lat="45.72724359529542" lon="9.714516795880023"><ele>296.0</ele><time>2026-05-03T15:23:37Z</time></trkpt><trkpt lat="45.7272146432486" lon="9.714420333001645"><ele>296.0</ele><time>2026-05-03T15:23:41Z</time></trkpt><trkpt lat="45.72717630433176" lon="9.714337371524529"><ele>296.0</ele><time>2026-05-03T15:23:47Z</time></trkpt><trkpt lat="45.72713981544884" lon="9.714247819231957"><ele>296.0</ele><time>2026-05-03T15:23:51Z</time></trkpt><trkpt lat="45.7270882529963" lon="9.714174236823515"><ele>296.0</ele><time>2026-05-03T15:23:55Z</time></trkpt><trkpt lat="45.72705140216652" lon="9.714084419955952"><ele>296.0</ele><time>2026-05-03T15:23:59Z</time></trkpt><trkpt lat="45.72699939763326" lon="9.713998059526094"><ele>296.0</ele><time>2026-05-03T15:24:04Z</time></trkpt><trkpt lat="45.72695841959627" lon="9.713910009800331"><ele>296.0</ele><time>2026-05-03T15:24:09Z</time></trkpt><trkpt lat="45.72691261801071" lon="9.713819663242985"><ele>296.0</ele><time>2026-05-03T15:24:12Z</time></trkpt><trkpt lat="45.72687451276538" lon="9.713729401909482"><ele>296.0</ele><time>2026-05-03T15:24:16Z</time></trkpt><trkpt lat="45.72683349597068" lon="9.71365925378169"><ele>296.0</ele><time>2026-05-03T15:24:20Z</time></trkpt><trkpt lat="45.72686434386896" lon="9.713577058487525"><ele>296.0</ele><time>2026-05-03T15:24:24Z</time></trkpt><trkpt lat="45.72693023073762" lon="9.713535986059416"><ele>296.0</ele><time>2026-05-03T15:24:29Z</time></trkpt><trkpt lat="45.726995111999045" lon="9.713489545543338"><ele>296.0</ele><time>2026-05-03T15:24:35Z</time></trkpt><trkpt lat="45.727055807624886" lon="9.713461317833262"><ele>296.0</ele><time>2026-05-03T15:24:38Z</time></trkpt><trkpt lat="45.72711793590889" lon="9.71342640270544"><ele>296.0</ele><time>2026-05-03T15:24:42Z</time></trkpt><trkpt lat="45.72717075504856" lon="9.71336819148557"><ele>296.0</ele><time>2026-05-03T15:24:46Z</time></trkpt><trkpt lat="45.72722992410606" lon="9.71331495069245"><ele>296.0</ele><time>2026-05-03T15:24:51Z</time></trkpt><trkpt lat="45.72728971846379" lon="9.713237756510633"><ele>296.0</ele><time>2026-05-03T15:24:55Z</time></trkpt><trkpt lat="45.727347827307675" lon="9.713197171228636"><ele>296.0</ele><time>2026-05-03T15:24:59Z</time></trkpt><trkpt lat="45.72741889531007" lon="9.713161936431508"><ele>296.0</ele><time>2026-05-03T15:25:04Z</time></trkpt><trkpt lat="45.72744876675551" lon="9.713076920171211"><ele>296.0</ele><time>2026-05-03T15:25:07Z</time></trkpt><trkpt lat="45.72746856585641" lon="9.712982611753377"><ele>296.0</ele><time>2026-05-03T15:25:10Z</time></trkpt><trkpt lat="45.72753598766012" lon="9.71292721322308"><ele>296.0</ele><time>2026-05-03T15:25:15Z</time></trkpt><trkpt lat="45.72759937097713" lon="9.712879467460452"><ele>296.0</ele><time>2026-05-03T15:25:22Z</time></trkpt><trkpt lat="45.72766089213591" lon="9.71282574171679"><ele>296.0</ele><time>2026-05-03T15:25:26Z</time></trkpt><trkpt lat="45.727703473637376" lon="9.712730555112287"><ele>296.0</ele><time>2026-05-03T15:25:32Z</time></trkpt><trkpt lat="45.72775467007246" lon="9.712649987463054"><ele>296.0</ele><time>2026-05-03T15:25:37Z</time></trkpt><trkpt lat="45.727786426082005" lon="9.712569788985814"><ele>296.0</ele><time>2026-05-03T15:25:41Z</time></trkpt><trkpt lat="45.727820671088026" lon="9.712476047025888"><ele>296.7142857142857</ele><time>2026-05-03T15:25:46Z</time></trkpt><trkpt lat="45.72787651385645" lon="9.712405214236517"><ele>297.42857142857144</ele><time>2026-05-03T15:25:51Z</time></trkpt><trkpt lat="45.72790453209722" lon="9.712319557941981"><ele>298.1428571428571</ele><time>2026-05-03T15:25:55Z</time></trkpt><trkpt lat="45.727944148823035" lon="9.712244534791466"><ele>298.8571428571429</ele><time>2026-05-03T15:25:59Z</time></trkpt><trkpt lat="45.728014916888235" lon="9.712187494931294"><ele>299.57142857142856</ele><time>2026-05-03T15:26:04Z</time></trkpt><trkpt lat="45.72807140197793" lon="9.712139164690786"><ele>300.2857142857143</ele><time>2026-05-03T15:26:08Z</time></trkpt><trkpt lat="45.72814213513169" lon="9.712089763687755"><ele>301.0</ele><time>2026-05-03T15:26:13Z</time></trkpt><trkpt lat="45.72821098178007" lon="9.71203154112075"><ele>301.0</ele><time>2026-05-03T15:26:18Z</time></trkpt><trkpt lat="45.72826234646906" lon="9.711965194776598"><ele>301.0</ele><time>2026-05-03T15:26:23Z</time></trkpt><trkpt lat="45.728317735854745" lon="9.711901301741026"><ele>301.0</ele><time>2026-05-03T15:26:28Z</time></trkpt><trkpt lat="45.72836376783616" lon="9.711839196483764"><ele>301.0</ele><time>2026-05-03T15:26:32Z</time></trkpt><trkpt lat="45.728421581093166" lon="9.711770067971267"><ele>301.0</ele><time>2026-05-03T15:26:37Z</time></trkpt><trkpt lat="45.7284776991844" lon="9.711715367410413"><ele>301.0</ele><time>2026-05-03T15:26:41Z</time></trkpt><trkpt lat="45.728529714187204" lon="9.71163818490677"><ele>301.0</ele><time>2026-05-03T15:26:46Z</time></trkpt><trkpt lat="45.728592303169684" lon="9.711589641261764"><ele>302.0</ele><time>2026-05-03T15:26:50Z</time></trkpt><trkpt lat="45.7286293628536" lon="9.711514427533004"><ele>303.0</ele><time>2026-05-03T15:26:55Z</time></trkpt><trkpt lat="45.72865545779482" lon="9.711430370121365"><ele>304.0</ele><time>2026-05-03T15:26:59Z</time></trkpt><trkpt lat="45.72868189350153" lon="9.711347028468849"><ele>305.0</ele><time>2026-05-03T15:27:03Z</time></trkpt><trkpt lat="45.72871814844908" lon="9.711271948787175"><ele>306.0</ele><time>2026-05-03T15:27:07Z</time></trkpt><trkpt lat="45.72874684239784" lon="9.711190173153426"><ele>307.0</ele><time>2026-05-03T15:27:11Z</time></trkpt><trkpt lat="45.72878096158686" lon="9.711108668958737"><ele>308.0</ele><time>2026-05-03T15:27:15Z</time></trkpt><trkpt lat="45.72881683606075" lon="9.711029242710891"><ele>308.2857142857143</ele><time>2026-05-03T15:27:19Z</time></trkpt><trkpt lat="45.72884801878653" lon="9.710947949493205"><ele>308.57142857142856</ele><time>2026-05-03T15:27:23Z</time></trkpt><trkpt lat="45.728869366241256" lon="9.710860978039104"><ele>308.8571428571429</ele><time>2026-05-03T15:27:27Z</time></trkpt><trkpt lat="45.728909167309666" lon="9.710763306708424"><ele>309.1428571428571</ele><time>2026-05-03T15:27:32Z</time></trkpt><trkpt lat="45.728945133950496" lon="9.710672539896295"><ele>309.42857142857144</ele><time>2026-05-03T15:27:36Z</time></trkpt><trkpt lat="45.72897429735757" lon="9.710582198410753"><ele>309.7142857142857</ele><time>2026-05-03T15:27:40Z</time></trkpt><trkpt lat="45.72899209093025" lon="9.710483767568576"><ele>310.0</ele><time>2026-05-03T15:27:44Z</time></trkpt><trkpt lat="45.72902974368409" lon="9.710395012677859"><ele>310.0</ele><time>2026-05-03T15:27:48Z</time></trkpt><trkpt lat="45.72907107968339" lon="9.710312322754765"><ele>310.0</ele><time>2026-05-03T15:27:52Z</time></trkpt><trkpt lat="45.72910870440887" lon="9.710235554197435"><ele>310.0</ele><time>2026-05-03T15:27:56Z</time></trkpt><trkpt lat="45.72913134203085" lon="9.710148698545487"><ele>310.0</ele><time>2026-05-03T15:28:00Z</time></trkpt><trkpt lat="45.7291622212945" lon="9.710058761174205"><ele>310.0</ele><time>2026-05-03T15:28:04Z</time></trkpt><trkpt lat="45.72919278450645" lon="9.709975650323678"><ele>310.0</ele><time>2026-05-03T15:28:08Z</time></trkpt><trkpt lat="45.72922194317434" lon="9.70989346274408"><ele>310.0</ele><time>2026-05-03T15:28:12Z</time></trkpt><trkpt lat="45.72925911177355" lon="9.709814992192314"><ele>310.2857142857143</ele><time>2026-05-03T15:28:16Z</time></trkpt><trkpt lat="45.729293757798466" lon="9.709725576790875"><ele>310.57142857142856</ele><time>2026-05-03T15:28:20Z</time></trkpt><trkpt lat="45.72931705062606" lon="9.709638084844817"><ele>310.8571428571429</ele><time>2026-05-03T15:28:24Z</time></trkpt><trkpt lat="45.729352454682505" lon="9.709535364579523"><ele>311.1428571428571</ele><time>2026-05-03T15:28:29Z</time></trkpt><trkpt lat="45.72939274816148" lon="9.709452425361395"><ele>311.4285714285714</ele><time>2026-05-03T15:28:33Z</time></trkpt><trkpt lat="45.72942025363716" lon="9.709367299463423"><ele>311.7142857142857</ele><time>2026-05-03T15:28:37Z</time></trkpt><trkpt lat="45.72945310754762" lon="9.709277376532954"><ele>312.0</ele><time>2026-05-03T15:28:41Z</time></trkpt><trkpt lat="45.729481806146595" lon="9.70917712203949"><ele>313.0</ele><time>2026-05-03T15:28:46Z</time></trkpt><trkpt lat="45.72951500385478" lon="9.709078503861306"><ele>314.0</ele><time>2026-05-03T15:28:51Z</time></trkpt><trkpt lat="45.729547162780825" lon="9.708991379200812"><ele>315.0</ele><time>2026-05-03T15:28:55Z</time></trkpt><trkpt lat="45.72959135187958" lon="9.708907022142698"><ele>316.0</ele><time>2026-05-03T15:28:59Z</time></trkpt><trkpt lat="45.729630880478176" lon="9.708815328952088"><ele>317.0</ele><time>2026-05-03T15:29:04Z</time></trkpt><trkpt lat="45.72966954533448" lon="9.70873271540824"><ele>318.0</ele><time>2026-05-03T15:29:08Z</time></trkpt><trkpt lat="45.72970168888665" lon="9.708646547729508"><ele>319.0</ele><time>2026-05-03T15:29:12Z</time></trkpt><trkpt lat="45.72973315178463" lon="9.708565541416696"><ele>319.0</ele><time>2026-05-03T15:29:16Z</time></trkpt><trkpt lat="45.7297707998596" lon="9.708484560613847"><ele>319.0</ele><time>2026-05-03T15:29:20Z</time></trkpt><trkpt lat="45.72980413849847" lon="9.708401703791361"><ele>319.0</ele><time>2026-05-03T15:29:24Z</time></trkpt><trkpt lat="45.72983234268715" lon="9.708318725509615"><ele>319.0</ele><time>2026-05-03T15:29:28Z</time></trkpt><trkpt lat="45.72986199211557" lon="9.708234373153777"><ele>319.0</ele><time>2026-05-03T15:29:32Z</time></trkpt><trkpt lat="45.729885290428754" lon="9.708144650288425"><ele>319.0</ele><time>2026-05-03T15:29:36Z</time></trkpt><trkpt lat="45.729922200308394" lon="9.708042419911736"><ele>319.0</ele><time>2026-05-03T15:29:41Z</time></trkpt><trkpt lat="45.72995751642043" lon="9.707937461303317"><ele>319.0</ele><time>2026-05-03T15:29:46Z</time></trkpt><trkpt lat="45.729993404361494" lon="9.70783581739649"><ele>319.0</ele><time>2026-05-03T15:29:51Z</time></trkpt><trkpt lat="45.73002450012167" lon="9.70775406766869"><ele>319.0</ele><time>2026-05-03T15:29:55Z</time></trkpt><trkpt lat="45.73005073806463" lon="9.707666233332096"><ele>319.0</ele><time>2026-05-03T15:29:59Z</time></trkpt><trkpt lat="45.73007866835769" lon="9.707578635319386"><ele>319.0</ele><time>2026-05-03T15:30:03Z</time></trkpt><trkpt lat="45.73010777610474" lon="9.707484388015885"><ele>319.0</ele><time>2026-05-03T15:30:07Z</time></trkpt><trkpt lat="45.730130194718754" lon="9.70738641715541"><ele>319.0</ele><time>2026-05-03T15:30:12Z</time></trkpt><trkpt lat="45.730158009781" lon="9.707288634527115"><ele>319.2857142857143</ele><time>2026-05-03T15:30:17Z</time></trkpt><trkpt lat="45.73018664305058" lon="9.707206499573017"><ele>319.57142857142856</ele><time>2026-05-03T15:30:21Z</time></trkpt><trkpt lat="45.730221958909446" lon="9.707110896753864"><ele>319.85714285714283</ele><time>2026-05-03T15:30:26Z</time></trkpt><trkpt lat="45.73025243914584" lon="9.707012116284089"><ele>320.1428571428571</ele><time>2026-05-03T15:30:31Z</time></trkpt><trkpt lat="45.730269448445576" lon="9.706914448746192"><ele>320.42857142857144</ele><time>2026-05-03T15:30:35Z</time></trkpt><trkpt lat="45.730311936471495" lon="9.706820806652624"><ele>320.71428571428567</ele><time>2026-05-03T15:30:40Z</time></trkpt><trkpt lat="45.73034301850897" lon="9.706728939216413"><ele>321.0</ele><time>2026-05-03T15:30:45Z</time></trkpt><trkpt lat="45.730361472482" lon="9.706627294350172"><ele>322.85714285714283</ele><time>2026-05-03T15:30:50Z</time></trkpt><trkpt lat="45.73037198772451" lon="9.706522132745363"><ele>324.7142857142857</ele><time>2026-05-03T15:30:55Z</time></trkpt><trkpt lat="45.73038462225791" lon="9.706419368601502"><ele>326.57142857142856</ele><time>2026-05-03T15:31:00Z</time></trkpt><trkpt lat="45.730389119026775" lon="9.706322393909453"><ele>328.42857142857144</ele><time>2026-05-03T15:31:05Z</time></trkpt><trkpt lat="45.730401314333164" lon="9.70622210549647"><ele>330.2857142857143</ele><time>2026-05-03T15:31:10Z</time></trkpt><trkpt lat="45.730424593937656" lon="9.706130080159397"><ele>332.1428571428571</ele><time>2026-05-03T15:31:15Z</time></trkpt><trkpt lat="45.730488000378955" lon="9.706100182042954"><ele>334.0</ele><time>2026-05-03T15:31:18Z</time></trkpt><trkpt lat="45.73055287573589" lon="9.706146057491246"><ele>334.0</ele><time>2026-05-03T15:31:23Z</time></trkpt><trkpt lat="45.73059069495451" lon="9.706230744900747"><ele>334.0</ele><time>2026-05-03T15:31:28Z</time></trkpt><trkpt lat="45.73063719179538" lon="9.706300052346116"><ele>334.0</ele><time>2026-05-03T15:31:33Z</time></trkpt><trkpt lat="45.73069385257028" lon="9.706371860312329"><ele>334.0</ele><time>2026-05-03T15:31:39Z</time></trkpt><trkpt lat="45.730746891631405" lon="9.70642377890383"><ele>334.0</ele><time>2026-05-03T15:31:45Z</time></trkpt><trkpt lat="45.73080507984797" lon="9.706498722581156"><ele>334.0</ele><time>2026-05-03T15:31:51Z</time></trkpt><trkpt lat="45.7308598917907" lon="9.70656192003016"><ele>334.0</ele><time>2026-05-03T15:31:56Z</time></trkpt><trkpt lat="45.73091632252889" lon="9.706626408833266"><ele>334.0</ele><time>2026-05-03T15:32:01Z</time></trkpt><trkpt lat="45.73097848608984" lon="9.706693651640949"><ele>334.0</ele><time>2026-05-03T15:32:07Z</time></trkpt><trkpt lat="45.731042451275236" lon="9.706718030863517"><ele>334.0</ele><time>2026-05-03T15:32:12Z</time></trkpt><trkpt lat="45.73111329292602" lon="9.706728971084065"><ele>334.0</ele><time>2026-05-03T15:32:17Z</time></trkpt><trkpt lat="45.73117634937558" lon="9.706693927714799"><ele>334.0</ele><time>2026-05-03T15:32:21.999Z</time></trkpt><trkpt lat="45.73120430318118" lon="9.706611539587207"><ele>334.0</ele><time>2026-05-03T15:32:26.999Z</time></trkpt><trkpt lat="45.73122146167625" lon="9.706523423027798"><ele>334.0</ele><time>2026-05-03T15:32:31.999Z</time></trkpt><trkpt lat="45.73124066357455" lon="9.706427816409345"><ele>335.0</ele><time>2026-05-03T15:32:36.999Z</time></trkpt><trkpt lat="45.73126600424983" lon="9.706335352193792"><ele>336.0</ele><time>2026-05-03T15:32:42Z</time></trkpt><trkpt lat="45.73129215760245" lon="9.706250344016798"><ele>337.0</ele><time>2026-05-03T15:32:51Z</time></trkpt><trkpt lat="45.73133287764365" lon="9.70616366337997"><ele>338.0</ele><time>2026-05-03T15:33:04Z</time></trkpt><trkpt lat="45.731361091029136" lon="9.706079823084439"><ele>339.0</ele><time>2026-05-03T15:33:09Z</time></trkpt><trkpt lat="45.731360193693796" lon="9.705973387333415"><ele>340.0</ele><time>2026-05-03T15:33:15Z</time></trkpt><trkpt lat="45.73136674637454" lon="9.70587882381879"><ele>341.0</ele><time>2026-05-03T15:33:20Z</time></trkpt><trkpt lat="45.73140061654748" lon="9.705783337738444"><ele>341.85714285714283</ele><time>2026-05-03T15:33:25Z</time></trkpt><trkpt lat="45.73141649573671" lon="9.70567469165895"><ele>342.7142857142857</ele><time>2026-05-03T15:33:30Z</time></trkpt><trkpt lat="45.73142898450437" lon="9.705570793698088"><ele>343.57142857142856</ele><time>2026-05-03T15:33:35Z</time></trkpt><trkpt lat="45.73145228896568" lon="9.705477230946224"><ele>344.42857142857144</ele><time>2026-05-03T15:33:41Z</time></trkpt><trkpt lat="45.73147238278022" lon="9.70538080874527"><ele>345.2857142857143</ele><time>2026-05-03T15:33:46Z</time></trkpt><trkpt lat="45.731470055986485" lon="9.705271928567466"><ele>346.14285714285717</ele><time>2026-05-03T15:33:51Z</time></trkpt><trkpt lat="45.73147316926187" lon="9.705177222960398"><ele>347.0</ele><time>2026-05-03T15:33:56Z</time></trkpt><trkpt lat="45.731481969523394" lon="9.705078951624039"><ele>348.2857142857143</ele><time>2026-05-03T15:34:03Z</time></trkpt><trkpt lat="45.73148937992294" lon="9.704986516452513"><ele>349.57142857142856</ele><time>2026-05-03T15:34:10Z</time></trkpt><trkpt lat="45.731498236992955" lon="9.704877531740804"><ele>350.85714285714283</ele><time>2026-05-03T15:34:16Z</time></trkpt><trkpt lat="45.73150824725214" lon="9.704783491229769"><ele>352.1428571428571</ele><time>2026-05-03T15:34:21Z</time></trkpt><trkpt lat="45.731526243019566" lon="9.704690441597357"><ele>353.42857142857144</ele><time>2026-05-03T15:34:27Z</time></trkpt><trkpt lat="45.731544015383186" lon="9.7046037846665"><ele>354.71428571428567</ele><time>2026-05-03T15:34:33Z</time></trkpt><trkpt lat="45.7315580617644" lon="9.704508276534416"><ele>356.0</ele><time>2026-05-03T15:34:39.999Z</time></trkpt><trkpt lat="45.73157550278859" lon="9.70440821647161"><ele>357.99999999999994</ele><time>2026-05-03T15:34:48Z</time></trkpt><trkpt lat="45.73159667089254" lon="9.704312279653909"><ele>360.0</ele><time>2026-05-03T15:34:54Z</time></trkpt><trkpt lat="45.73162088043455" lon="9.704212377170029"><ele>362.0</ele><time>2026-05-03T15:35:02Z</time></trkpt><trkpt lat="45.731639514885565" lon="9.704117798108198"><ele>364.0</ele><time>2026-05-03T15:35:08Z</time></trkpt><trkpt lat="45.73165254952305" lon="9.704017746762432"><ele>366.0</ele><time>2026-05-03T15:35:15Z</time></trkpt><trkpt lat="45.731688243292666" lon="9.703936610445073"><ele>367.99999999999994</ele><time>2026-05-03T15:35:21Z</time></trkpt><trkpt lat="45.73171569400446" lon="9.703848647178395"><ele>370.0</ele><time>2026-05-03T15:35:27Z</time></trkpt><trkpt lat="45.73171486514922" lon="9.703739411323848"><ele>369.99999999999994</ele><time>2026-05-03T15:35:34Z</time></trkpt><trkpt lat="45.73171629640212" lon="9.703639585949267"><ele>370.0</ele><time>2026-05-03T15:35:41Z</time></trkpt><trkpt lat="45.73172786140166" lon="9.70353557734865"><ele>370.0</ele><time>2026-05-03T15:35:48Z</time></trkpt><trkpt lat="45.73174231667952" lon="9.703435256736014"><ele>370.0</ele><time>2026-05-03T15:35:54Z</time></trkpt><trkpt lat="45.73176509631755" lon="9.703344790402706"><ele>370.0</ele><time>2026-05-03T15:36:01Z</time></trkpt><trkpt lat="45.73178247130784" lon="9.703249278118168"><ele>369.99999999999994</ele><time>2026-05-03T15:36:07Z</time></trkpt><trkpt lat="45.73177800134145" lon="9.703145601638175"><ele>370.0</ele><time>2026-05-03T15:36:13Z</time></trkpt><trkpt lat="45.73177142789795" lon="9.703050328272285"><ele>371.71428571428567</ele><time>2026-05-03T15:36:19Z</time></trkpt><trkpt lat="45.73177475881214" lon="9.702957833465508"><ele>373.42857142857144</ele><time>2026-05-03T15:36:25Z</time></trkpt><trkpt lat="45.73177143778133" lon="9.70286674945533"><ele>375.1428571428571</ele><time>2026-05-03T15:36:30Z</time></trkpt><trkpt lat="45.731780546503636" lon="9.702759779497677"><ele>376.85714285714283</ele><time>2026-05-03T15:36:34.999Z</time></trkpt><trkpt lat="45.731805354090554" lon="9.702669387725505"><ele>378.57142857142856</ele><time>2026-05-03T15:36:39.999Z</time></trkpt><trkpt lat="45.73182761891073" lon="9.70258282014111"><ele>380.2857142857143</ele><time>2026-05-03T15:36:45.999Z</time></trkpt><trkpt lat="45.73184682609389" lon="9.702477508088498"><ele>382.0</ele><time>2026-05-03T15:36:54Z</time></trkpt><trkpt lat="45.73182974939876" lon="9.702384873093123"><ele>384.0</ele><time>2026-05-03T15:37:00Z</time></trkpt><trkpt lat="45.73181093405354" lon="9.702291004512931"><ele>386.0</ele><time>2026-05-03T15:37:08Z</time></trkpt><trkpt lat="45.73179308664508" lon="9.70218496076049"><ele>388.0</ele><time>2026-05-03T15:37:15Z</time></trkpt><trkpt lat="45.73177142482539" lon="9.702088865615059"><ele>390.0</ele><time>2026-05-03T15:37:23Z</time></trkpt><trkpt lat="45.73175603374307" lon="9.701999810050086"><ele>392.00000000000006</ele><time>2026-05-03T15:37:30Z</time></trkpt><trkpt lat="45.731781139909636" lon="9.701882479585247"><ele>394.0</ele><time>2026-05-03T15:37:42Z</time></trkpt><trkpt lat="45.731791874580914" lon="9.701746439330265"><ele>396.33333333333337</ele><time>2026-05-03T15:38:03Z</time></trkpt><trkpt lat="45.73181259007372" lon="9.701655932099685"><ele>398.6666666666667</ele><time>2026-05-03T15:38:07Z</time></trkpt><trkpt lat="45.73178127099652" lon="9.701576244193806"><ele>401.0</ele><time>2026-05-03T15:38:16Z</time></trkpt><trkpt lat="45.731791664218576" lon="9.701480720724994"><ele>403.33333333333337</ele><time>2026-05-03T15:38:25Z</time></trkpt><trkpt lat="45.73178186519844" lon="9.701386554797498"><ele>405.6666666666667</ele><time>2026-05-03T15:38:32Z</time></trkpt><trkpt lat="45.73182095015078" lon="9.701314868892498"><ele>408.0</ele><time>2026-05-03T15:38:43.999Z</time></trkpt><trkpt lat="45.73194783004692" lon="9.70128336963407"><ele>410.8333333333333</ele><time>2026-05-03T15:39:04Z</time></trkpt><trkpt lat="45.73204421802194" lon="9.701261887854871"><ele>413.66666666666663</ele><time>2026-05-03T15:39:18Z</time></trkpt><trkpt lat="45.73212004169592" lon="9.701228555080132"><ele>416.5</ele><time>2026-05-03T15:39:27Z</time></trkpt><trkpt lat="45.73219337575089" lon="9.701252920210111"><ele>419.3333333333333</ele><time>2026-05-03T15:39:33Z</time></trkpt><trkpt lat="45.73227002999213" lon="9.701247604964092"><ele>422.16666666666663</ele><time>2026-05-03T15:39:44Z</time></trkpt><trkpt lat="45.732362446942865" lon="9.701227946334326"><ele>425.0</ele><time>2026-05-03T15:39:57Z</time></trkpt><trkpt lat="45.73239769366893" lon="9.701145532740924"><ele>428.2857142857143</ele><time>2026-05-03T15:40:06Z</time></trkpt><trkpt lat="45.732406728281795" lon="9.701045291027336"><ele>431.57142857142856</ele><time>2026-05-03T15:40:16Z</time></trkpt><trkpt lat="45.73237767040907" lon="9.700949930297778"><ele>434.8571428571429</ele><time>2026-05-03T15:40:25Z</time></trkpt><trkpt lat="45.73233261839062" lon="9.700869826010296"><ele>438.1428571428571</ele><time>2026-05-03T15:40:35Z</time></trkpt><trkpt lat="45.73234537256459" lon="9.700765498123321"><ele>441.42857142857144</ele><time>2026-05-03T15:40:45.999Z</time></trkpt><trkpt lat="45.73240079939673" lon="9.700697874876411"><ele>444.7142857142857</ele><time>2026-05-03T15:40:53.999Z</time></trkpt><trkpt lat="45.73245086474043" lon="9.700619382628245"><ele>448.0</ele><time>2026-05-03T15:41:06Z</time></trkpt><trkpt lat="45.73247500635978" lon="9.70051885742959"><ele>448.00000000000006</ele><time>2026-05-03T15:41:13Z</time></trkpt><trkpt lat="45.73254470113474" lon="9.700457842383088"><ele>448.0</ele><time>2026-05-03T15:41:20Z</time></trkpt><trkpt lat="45.73260439048341" lon="9.700422970973204"><ele>448.0</ele><time>2026-05-03T15:41:29Z</time></trkpt><trkpt lat="45.73266813387825" lon="9.700393226114606"><ele>448.0</ele><time>2026-05-03T15:41:38Z</time></trkpt><trkpt lat="45.732728286660574" lon="9.700299744358297"><ele>448.00000000000006</ele><time>2026-05-03T15:41:50Z</time></trkpt><trkpt lat="45.73274865006158" lon="9.700191409014487"><ele>448.0</ele><time>2026-05-03T15:42:02Z</time></trkpt><trkpt lat="45.73280534182008" lon="9.700110259956954"><ele>453.6666666666667</ele><time>2026-05-03T15:42:19Z</time></trkpt><trkpt lat="45.732854443067126" lon="9.700047158479466"><ele>459.33333333333337</ele><time>2026-05-03T15:42:28Z</time></trkpt><trkpt lat="45.73291423687352" lon="9.699975814291964"><ele>465.0</ele><time>2026-05-03T15:42:38Z</time></trkpt><trkpt lat="45.732993281049566" lon="9.699903439176335"><ele>470.66666666666663</ele><time>2026-05-03T15:42:47.999Z</time></trkpt><trkpt lat="45.73304017135442" lon="9.699808754510435"><ele>476.3333333333333</ele><time>2026-05-03T15:43:04.999Z</time></trkpt><trkpt lat="45.733122506341594" lon="9.699710967009885"><ele>482.0</ele><time>2026-05-03T15:43:22Z</time></trkpt><trkpt lat="45.73318022203643" lon="9.699656108191453"><ele>482.0</ele><time>2026-05-03T15:43:31Z</time></trkpt><trkpt lat="45.73323818792186" lon="9.699619354277132"><ele>482.00000000000006</ele><time>2026-05-03T15:43:39Z</time></trkpt><trkpt lat="45.73330435336125" lon="9.699579746075736"><ele>482.0</ele><time>2026-05-03T15:43:51Z</time></trkpt><trkpt lat="45.733393761827095" lon="9.699558407322757"><ele>482.0</ele><time>2026-05-03T15:44:05Z</time></trkpt><trkpt lat="45.73342960025375" lon="9.699482733110633"><ele>482.00000000000006</ele><time>2026-05-03T15:44:16Z</time></trkpt><trkpt lat="45.7334941865029" lon="9.699499906937561"><ele>482.0</ele><time>2026-05-03T15:44:25Z</time></trkpt><trkpt lat="45.73356749198733" lon="9.699485373414147"><ele>482.0</ele><time>2026-05-03T15:44:45Z</time></trkpt><trkpt lat="45.73362598235271" lon="9.699417011434663"><ele>487.42857142857144</ele><time>2026-05-03T15:45:00.999Z</time></trkpt><trkpt lat="45.733687212938776" lon="9.699362616207193"><ele>492.8571428571429</ele><time>2026-05-03T15:45:07.999Z</time></trkpt><trkpt lat="45.73374978544779" lon="9.6993199979341"><ele>498.28571428571433</ele><time>2026-05-03T15:45:13.999Z</time></trkpt><trkpt lat="45.73380943481116" lon="9.699289145672678"><ele>503.7142857142858</ele><time>2026-05-03T15:45:25Z</time></trkpt><trkpt lat="45.73386800210645" lon="9.699244551477888"><ele>509.14285714285717</ele><time>2026-05-03T15:45:34Z</time></trkpt><trkpt lat="45.733917392881324" lon="9.699187939462899"><ele>514.5714285714287</ele><time>2026-05-03T15:45:45Z</time></trkpt><trkpt lat="45.73397607717182" lon="9.699150366979504"><ele>520.0</ele><time>2026-05-03T15:45:53Z</time></trkpt><trkpt lat="45.734039110332965" lon="9.699176102203216"><ele>520.0</ele><time>2026-05-03T15:46:00Z</time></trkpt><trkpt lat="45.73410210516776" lon="9.699214547767317"><ele>520.0</ele><time>2026-05-03T15:46:09Z</time></trkpt><trkpt lat="45.734163103769454" lon="9.699251983866304"><ele>520.0</ele><time>2026-05-03T15:46:14Z</time></trkpt><trkpt lat="45.7342390038687" lon="9.699273485154416"><ele>520.0</ele><time>2026-05-03T15:46:29Z</time></trkpt><trkpt lat="45.734275799242525" lon="9.69917338145838"><ele>520.0</ele><time>2026-05-03T15:46:44Z</time></trkpt><trkpt lat="45.734374661369834" lon="9.699180738416572"><ele>520.0</ele><time>2026-05-03T15:47:01.999Z</time></trkpt><trkpt lat="45.73445361369481" lon="9.699182411932082"><ele>527.1666666666667</ele><time>2026-05-03T15:47:16.999Z</time></trkpt><trkpt lat="45.73452902342517" lon="9.699136563482064"><ele>534.3333333333334</ele><time>2026-05-03T15:47:31Z</time></trkpt><trkpt lat="45.73458256227386" lon="9.699065023470977"><ele>541.5</ele><time>2026-05-03T15:47:44Z</time></trkpt><trkpt lat="45.7346002230635" lon="9.698961373163364"><ele>548.6666666666666</ele><time>2026-05-03T15:47:52Z</time></trkpt><trkpt lat="45.73461305660361" lon="9.69886784428105"><ele>555.8333333333333</ele><time>2026-05-03T15:48:02Z</time></trkpt><trkpt lat="45.734714602381004" lon="9.698887727056324"><ele>563.0</ele><time>2026-05-03T15:48:30Z</time></trkpt><trkpt lat="45.73482121109035" lon="9.698867124600111"><ele>563.0</ele><time>2026-05-03T15:49:52Z</time></trkpt><trkpt lat="45.734888357477985" lon="9.698799753097221"><ele>563.0</ele><time>2026-05-03T15:50:16Z</time></trkpt><trkpt lat="45.73493983710437" lon="9.698859761497031"><ele>563.0</ele><time>2026-05-03T15:50:27Z</time></trkpt><trkpt lat="45.73500636195519" lon="9.698875176709478"><ele>563.0</ele><time>2026-05-03T15:50:37Z</time></trkpt><trkpt lat="45.73506932555557" lon="9.698835973467272"><ele>563.0</ele><time>2026-05-03T15:50:46Z</time></trkpt><trkpt lat="45.73517087733571" lon="9.698772181792025"><ele>563.0</ele><time>2026-05-03T15:51:05.999Z</time></trkpt><trkpt lat="45.73521407779405" lon="9.698705794801674"><ele>568.1428571428571</ele><time>2026-05-03T15:51:14.999Z</time></trkpt><trkpt lat="45.735254365765016" lon="9.698626080038787"><ele>573.2857142857143</ele><time>2026-05-03T15:51:22.999Z</time></trkpt><trkpt lat="45.735299082207945" lon="9.698562552406853"><ele>578.4285714285714</ele><time>2026-05-03T15:51:33Z</time></trkpt><trkpt lat="45.7353586302365" lon="9.698515672184243"><ele>583.5714285714286</ele><time>2026-05-03T15:51:42Z</time></trkpt><trkpt lat="45.73541269776811" lon="9.698579479958855"><ele>588.7142857142857</ele><time>2026-05-03T15:51:57Z</time></trkpt><trkpt lat="45.735478855669584" lon="9.698590055251733"><ele>593.8571428571429</ele><time>2026-05-03T15:52:17Z</time></trkpt><trkpt lat="45.73551103999319" lon="9.698507701983019"><ele>599.0</ele><time>2026-05-03T15:52:32Z</time></trkpt><trkpt lat="45.7355726673078" lon="9.698455615075515"><ele>601.8333333333333</ele><time>2026-05-03T15:52:44Z</time></trkpt><trkpt lat="45.73563703442064" lon="9.69846802368449"><ele>604.6666666666666</ele><time>2026-05-03T15:53:01.999Z</time></trkpt><trkpt lat="45.73575279167058" lon="9.698486651732173"><ele>607.5</ele><time>2026-05-03T15:53:28.999Z</time></trkpt><trkpt lat="45.735799790348715" lon="9.69842421110077"><ele>610.3333333333334</ele><time>2026-05-03T15:53:39Z</time></trkpt><trkpt lat="45.735884820595224" lon="9.698361249334058"><ele>613.1666666666667</ele><time>2026-05-03T15:54:01Z</time></trkpt><trkpt lat="45.73596544552638" lon="9.698426922237159"><ele>616.0</ele><time>2026-05-03T15:54:24Z</time></trkpt><trkpt lat="45.736038494886785" lon="9.698458735028444"><ele>622.6666666666667</ele><time>2026-05-03T15:54:37Z</time></trkpt><trkpt lat="45.73614272873904" lon="9.698416405750327"><ele>629.3333333333334</ele><time>2026-05-03T15:54:57Z</time></trkpt><trkpt lat="45.73621936236378" lon="9.698386622239008"><ele>636.0</ele><time>2026-05-03T15:55:17.999Z</time></trkpt><trkpt lat="45.73628193785604" lon="9.698364319679392"><ele>642.6666666666666</ele><time>2026-05-03T15:55:21.999Z</time></trkpt><trkpt lat="45.73632250248859" lon="9.698291203981471"><ele>649.3333333333333</ele><time>2026-05-03T15:55:40.999Z</time></trkpt><trkpt lat="45.7363939521514" lon="9.698243015898049"><ele>656.0</ele><time>2026-05-03T15:55:54Z</time></trkpt><trkpt lat="45.736482516922976" lon="9.698211118072738"><ele>656.0</ele><time>2026-05-03T15:56:16Z</time></trkpt><trkpt lat="45.73654627553961" lon="9.698187309516358"><ele>656.0</ele><time>2026-05-03T15:56:26Z</time></trkpt><trkpt lat="45.736609973481265" lon="9.698136912830588"><ele>656.0</ele><time>2026-05-03T15:56:38Z</time></trkpt><trkpt lat="45.73667672797217" lon="9.697987664603401"><ele>656.0</ele><time>2026-05-03T15:57:04Z</time></trkpt><trkpt lat="45.7367036238404" lon="9.69789134464262"><ele>656.0</ele><time>2026-05-03T15:57:15.999Z</time></trkpt><trkpt lat="45.73674335718431" lon="9.69780211073638"><ele>656.0</ele><time>2026-05-03T15:57:21.999Z</time></trkpt><trkpt lat="45.73674926551506" lon="9.69769791336219"><ele>658.9999999999999</ele><time>2026-05-03T15:57:36.999Z</time></trkpt><trkpt lat="45.736780058959944" lon="9.69761026508116"><ele>662.0</ele><time>2026-05-03T15:58:00Z</time></trkpt><trkpt lat="45.736787654898734" lon="9.697518585669055"><ele>665.0</ele><time>2026-05-03T15:58:15Z</time></trkpt><trkpt lat="45.73681253746262" lon="9.697433971876668"><ele>668.0</ele><time>2026-05-03T15:58:23Z</time></trkpt><trkpt lat="45.73683640130768" lon="9.697302279375208"><ele>671.0</ele><time>2026-05-03T15:58:39Z</time></trkpt><trkpt lat="45.736843648912135" lon="9.697211493059232"><ele>673.9999999999999</ele><time>2026-05-03T15:58:48Z</time></trkpt><trkpt lat="45.73688704195499" lon="9.69712909542257"><ele>677.0</ele><time>2026-05-03T15:58:59Z</time></trkpt><trkpt lat="45.736911218714404" lon="9.697044603123748"><ele>678.9999999999999</ele><time>2026-05-03T15:59:10Z</time></trkpt><trkpt lat="45.73692550946291" lon="9.696941995979845"><ele>681.0</ele><time>2026-05-03T15:59:17.999Z</time></trkpt><trkpt lat="45.736959175908765" lon="9.696861369572181"><ele>683.0</ele><time>2026-05-03T15:59:25.999Z</time></trkpt><trkpt lat="45.736995241607005" lon="9.696784240745297"><ele>685.0</ele><time>2026-05-03T15:59:32.999Z</time></trkpt><trkpt lat="45.73703350653958" lon="9.696705133767589"><ele>687.0</ele><time>2026-05-03T15:59:41.999Z</time></trkpt><trkpt lat="45.737089935178076" lon="9.696655624333655"><ele>688.9999999999999</ele><time>2026-05-03T15:59:50.999Z</time></trkpt><trkpt lat="45.73712140542795" lon="9.696570989021415"><ele>691.0</ele><time>2026-05-03T16:00:04Z</time></trkpt><trkpt lat="45.737131354633036" lon="9.696478617911772"><ele>713.0</ele><time>2026-05-03T16:00:13Z</time></trkpt><trkpt lat="45.73717344498411" lon="9.696395114743604"><ele>713.0</ele><time>2026-05-03T16:00:22Z</time></trkpt><trkpt lat="45.73721191827102" lon="9.696313840838918"><ele>713.0</ele><time>2026-05-03T16:00:30Z</time></trkpt></trkseg></trk></gpx>